Weather observations for the past three days for
Harbor Springs, Harbor Springs Airport
Imperial (Metric)
Date Time (edt) Wind (mph) Vis. (mi.) Weather Sky Cond. Temperature (ºF) Relative Humidity Wind Chill (°F) Heat Index (°F) Pressure Precipitation (in)
Air Dwpt 6 hour altimeter (in) sea level (mb) 1 hr 3 hr 6 hr
Max. Min.
30 19:55 E 8 8.00 Overcast FEW014 OVC036 69.8 64.4 75.7 69.1 83% 29.96 0.0
30 19:35 E 9 8.00 Overcast SCT006 BKN012 OVC038 69.8 66.2 88% 29.95 0.0
30 19:15 E 8 7.00 Fog/Mist BKN006 OVC012 69.8 66.2 88% 29.96 0.0
30 18:55 E 12 6.00 Light Rain Fog/Mist BKN006 OVC012 69.8 66.2 88% 29.96 0.0
30 18:35 E 9 8.00 Overcast BKN006 OVC010 69.8 66.2 88% 29.97 0.0
30 18:15 E 7 6.00 Fog/Mist BKN006 OVC022 69.8 66.2 88% 29.97 0.0
30 17:55 E 7 4.00 Light Rain Fog/Mist OVC022 69.8 66.2 88% 29.97 0.0 0.01
30 17:35 E 8 2.50 Fog/Mist BKN020 OVC025 69.8 66.2 88% 29.97 0.0
30 17:15 E 7 1.75 Light Rain Fog/Mist FEW007 OVC020 69.8 66.2 88% 29.98 0.0
30 16:55 E 7 2.50 Overcast with Haze OVC020 69.8 66.2 88% 29.97 0.0
30 16:35 E 8 10.00 Overcast OVC022 71.6 64.4 78% 29.97 0.0
30 16:15 E 9 10.00 Overcast OVC022 73.4 64.4 74% 29.96 0.0
30 15:55 E 3 10.00 Overcast OVC020 73.4 64.4 74% 29.96 0.0
30 15:35 Calm 10.00 Overcast OVC020 73.4 64.4 74% 29.96 0.0
30 15:15 W 2 10.00 Overcast BKN020 OVC027 75.2 64.4 69% 77 29.96 0.0
30 14:55 W 2 10.00 Overcast SCT016 OVC027 75.2 64.4 69% 77 29.96 0.0
30 14:35 Vrbl 3 10.00 Overcast SCT016 OVC027 75.2 64.4 69% 77 29.96 0.0
30 14:15 Vrbl 5 10.00 Overcast FEW014 BKN020 OVC026 73.4 64.4 74% 29.97 0.0
30 13:55 SW 2 10.00 Overcast BKN018 OVC035 73.4 64.4 74.5 65.5 74% 29.97 0.0
30 13:35 Vrbl 2 10.00 Overcast SCT018 OVC035 73.4 64.4 74% 29.97 0.0
30 13:15 Vrbl 3 10.00 Overcast FEW012 BKN018 OVC033 73.4 64.4 74% 29.97 0.0
30 12:55 Vrbl 1 10.00 Overcast BKN018 BKN023 OVC033 71.6 64.4 78% 29.97 0.0
30 12:35 Vrbl 5 10.00 Overcast BKN018 BKN028 OVC039 71.6 64.4 78% 29.97 0.0
30 12:15 Vrbl 2 10.00 Overcast BKN018 BKN023 OVC028 69.8 62.6 78% 29.98 0.0
30 11:55 Vrbl 1 10.00 Overcast SCT018 OVC026 68 62.6 83% 29.98 0.0
30 11:35 E 2 10.00 Overcast SCT016 OVC026 68 62.6 83% 29.98 0.0
30 11:15 E 3 6.00 Overcast with Haze FEW016 OVC026 68 62.6 83% 29.98 0.0
30 10:55 S 2 10.00 Overcast FEW017 OVC024 68 62.6 83% 29.98 0.0
30 10:35 E 2 9.00 Overcast BKN017 OVC024 68 62.6 83% 29.98 0.0
30 10:15 E 2 9.00 Overcast OVC017 66.2 62.6 88% 29.98 0.0
30 09:55 NE 3 7.00 Overcast BKN017 OVC024 66.2 62.6 88% 29.98 0.0
30 09:35 E 3 10.00 Overcast OVC023 66.2 60.8 83% 29.98 0.0
30 09:15 NE 5 6.00 Light Rain Haze OVC025 66.2 60.8 83% 29.97 0.0
30 08:55 NE 5 10.00 Overcast OVC026 66.2 60.8 83% 29.98 0.0
30 08:35 E 5 10.00 Overcast OVC026 66.2 60.8 83% 29.98 0.0
30 08:15 E 3 10.00 Overcast OVC030 66.2 60.8 83% 29.98 0.0
30 07:55 Vrbl 3 10.00 Overcast OVC030 66.2 60.8 65.7 64.6 83% 29.97 0.0
30 07:35 E 6 10.00 Overcast OVC030 64.4 60.8 88% 29.96 0.0
30 07:15 E 5 10.00 Overcast OVC030 64.4 60.8 88% 29.97 0.0
30 06:55 E 3 10.00 Overcast BKN030 OVC035 64.4 60.8 88% 29.97 0.0
30 06:35 E 5 10.00 Overcast OVC030 64.4 60.8 88% 29.97 0.0
30 06:15 E 3 9.00 Overcast BKN030 OVC038 64.4 60.8 88% 29.97 0.0
30 05:55 E 5 10.00 Overcast OVC040 64.4 60.8 88% 29.98 0.0
30 05:35 E 6 10.00 Light Rain OVC044 64.4 60.8 88% 29.98 0.0
30 05:15 E 5 10.00 Overcast BKN045 OVC050 64.4 60.8 88% 29.98 0.0
30 04:55 NE 6 9.00 Overcast BKN049 OVC060 64.4 60.8 88% 29.98 0.0
30 04:35 E 7 10.00 Overcast OVC060 64.4 60.8 88% 29.99 0.0
30 04:15 E 6 10.00 Overcast OVC070 64.4 60.8 88% 30 0.0
30 03:55 E 6 9.00 Overcast BKN070 OVC085 64.4 60.8 88% 30 0.0
30 03:35 E 5 10.00 Overcast OVC090 64.4 60.8 88% 30 0.0
30 03:15 E 6 8.00 Overcast SCT046 SCT070 OVC080 64.4 60.8 88% 30.01 0.0
30 02:55 NE 6 9.00 Overcast FEW048 SCT070 OVC080 64.4 60.8 88% 30.02 0.0 0.01
30 02:35 E 5 9.00 Light Rain FEW055 BKN070 OVC080 64.4 60.8 88% 30.03 0.0
30 02:15 E 3 10.00 Overcast FEW055 SCT070 OVC080 64.4 60.8 88% 30.04 0.0
30 01:55 E 3 10.00 Light Rain FEW065 OVC075 64.4 60.8 70 64.8 88% 30.04 0.0 0.02
30 01:35 S 3 4.00 Light Rain Fog/Mist FEW009 OVC065 64.4 60.8 88% 30.06 0.0
30 01:15 Vrbl 6 4.00 Light Rain Fog/Mist BKN007 OVC050 66.2 60.8 83% 30.07 0.0
30 00:55 SW 6 4.00 Light Drizzle Fog/Mist BKN007 OVC011 66.2 62.6 88% 30.07 0.0 0.01
30 00:35 Vrbl 7 9.00 Light Drizzle BKN009 BKN013 OVC038 66.2 62.6 88% 30.07 0.0
30 00:15 SW 7 6.00 Light Rain Haze BKN013 BKN024 OVC038 66.2 62.6 88% 30.06 0.0
29 23:55 Vrbl 7 5.00 Light Rain Fog/Mist OVC008 66.2 62.6 88% 30.06 0.0 0.03
29 23:35 W 7 5.00 Light Rain Fog/Mist BKN010 OVC015 68 62.6 83% 30.06 0.0
29 23:15 W 5 5.00 Light Rain Fog/Mist BKN010 OVC015 68 64.4 88% 30.06 0.0
29 22:55 W 6 7.00 Light Rain FEW010 OVC017 68 62.6 83% 30.06 0.0 0.02
29 22:35 Vrbl 6 8.00 Light Rain BKN019 BKN030 OVC043 68 64.4 88% 30.06 0.0
29 22:15 W 5 9.00 Light Rain FEW013 FEW024 OVC043 68 64.4 88% 30.06 0.0
29 21:55 W 5 10.00 Overcast SCT023 BKN032 OVC041 69.8 62.6 78% 30.06 0.0
29 21:35 Vrbl 5 10.00 Overcast FEW012 OVC023 69.8 62.6 78% 30.05 0.0
29 21:15 W 5 10.00 Overcast SCT012 OVC029 69.8 62.6 78% 30.05 0.0
29 20:55 W 5 10.00 Overcast OVC034 69.8 62.6 78% 30.04 0.0
29 20:35 W 5 10.00 Overcast OVC037 69.8 60.8 73% 30.04 0.0
29 20:15 Vrbl 2 10.00 Overcast BKN034 OVC045 69.8 60.8 73% 30.04 0.0
29 19:55 Vrbl 7 10.00 Overcast FEW037 OVC047 69.8 60.8 76.1 70 73% 30.04 0.0
29 19:35 W 8 10.00 Overcast FEW029 BKN039 OVC049 69.8 60.8 73% 30.04 0.0
29 19:15 W 8 10.00 Overcast BKN034 OVC042 71.6 60.8 69% 30.04 0.0
29 18:55 Vrbl 7 10.00 Overcast BKN033 OVC044 71.6 60.8 69% 30.04 0.0
29 18:35 W 8 10.00 Overcast SCT019 OVC033 71.6 62.6 73% 30.03 0.0
29 18:15 W 8 10.00 Overcast BKN021 OVC042 71.6 62.6 73% 30.04 0.0
29 17:55 W 7 10.00 Mostly Cloudy FEW040 BKN060 73.4 62.6 69% 30.03 0.0
29 17:35 W 8 10.00 Overcast OVC060 73.4 62.6 69% 30.03 0.0
29 17:15 Vrbl 5 10.00 Overcast FEW043 OVC060 73.4 62.6 69% 30.03 0.0
29 16:55 W 5 10.00 Overcast OVC050 71.6 62.6 73% 30.03 0.0
29 16:35 Vrbl 7 10.00 Overcast OVC046 71.6 62.6 73% 30.03 0.0
29 16:15 Vrbl 7 10.00 Overcast BKN048 BKN080 OVC110 73.4 60.8 65% 30.04 0.0
29 15:55 Vrbl 7 10.00 Overcast BKN046 BKN080 OVC110 73.4 60.8 65% 30.04 0.0
29 15:35 Vrbl 5 10.00 Overcast OVC046 75.2 60.8 61% 77 30.05 0.0
29 15:15 NW 6 10.00 Mostly Cloudy BKN048 BKN050 75.2 59 57% 78 30.05 0.0
29 14:55 Vrbl 7 10.00 Partly Cloudy FEW050 SCT120 75.2 60.8 61% 77 30.05 0.0
29 14:35 Vrbl 6 10.00 Partly Cloudy SCT120 75.2 60.8 61% 77 30.05 0.0
29 14:15 W 6 10.00 Fair CLR 75.2 59 57% 78 30.05 0.0
29 13:55 W 8 10.00 A Few Clouds FEW050 75.2 59 76.3 65.8 57% 78 30.06 0.0
29 13:35 W 8 10.00 Partly Cloudy SCT050 75.2 59 57% 78 30.06 0.0
29 13:15 W 7 10.00 Partly Cloudy SCT050 75.2 60.8 61% 77 30.06 0.0
29 12:55 W 7 10.00 Mostly Cloudy BKN050 75.2 60.8 61% 77 30.06 0.0
29 12:35 Vrbl 7 10.00 Mostly Cloudy BKN050 75.2 62.6 65% 77 30.07 0.0
29 12:15 W 6 10.00 Mostly Cloudy BKN050 75.2 62.6 65% 77 30.07 0.0
29 11:55 W 7 10.00 Mostly Cloudy BKN050 75.2 60.8 61% 77 30.07 0.0
29 11:35 W 6 10.00 A Few Clouds FEW050 75.2 62.6 65% 77 30.07 0.0
29 11:15 Vrbl 5 10.00 Fair CLR 73.4 62.6 69% 30.07 0.0
29 10:55 Vrbl 5 10.00 Fair CLR 73.4 60.8 65% 30.06 0.0
29 10:35 Vrbl 6 10.00 Fair CLR 71.6 60.8 69% 30.06 0.0
29 10:15 Vrbl 6 10.00 Fair CLR 71.6 60.8 69% 30.07 0.0
29 09:55 Vrbl 6 10.00 Fair CLR 71.6 60.8 69% 30.06 0.0
29 09:35 W 6 10.00 Fair CLR 73.4 60.8 65% 30.06 0.0
29 09:15 Vrbl 5 10.00 Fair CLR 71.6 60.8 69% 30.06 0.0
29 08:55 Vrbl 5 10.00 Fair CLR 71.6 59 65% 30.06 0.0
29 08:35 Vrbl 6 10.00 Fair CLR 69.8 59 69% 30.06 0.0
29 08:15 SW 5 10.00 Fair CLR 68 59 73% 30.06 0.0
29 07:55 Vrbl 1 10.00 Partly Cloudy SCT065 66.2 57.2 66.7 57.9 73% 30.06 0.0
29 07:35 S 2 10.00 A Few Clouds FEW065 66.2 55.4 68% 30.07 0.0
29 07:15 S 5 10.00 Fair CLR 64.4 55.4 73% 30.06 0.0
29 06:55 SE 2 10.00 Fair CLR 66.2 55.4 68% 30.06 0.0
29 06:35 Vrbl 2 10.00 Fair CLR 64.4 55.4 73% 30.06 0.0
29 06:15 SW 5 10.00 Fair CLR 64.4 55.4 73% 30.06 0.0
29 05:55 Vrbl 3 10.00 Fair CLR 62.6 55.4 77% 30.06 0.0
29 05:35 Vrbl 5 10.00 Fair CLR 66.2 55.4 68% 30.06 0.0
29 05:15 SW 5 10.00 Fair CLR 66.2 55.4 68% 30.06 0.0
29 04:55 Vrbl 5 10.00 Fair CLR 64.4 55.4 73% 30.06 0.0
29 04:35 S 7 10.00 Fair CLR 64.4 55.4 73% 30.06 0.0
29 04:15 Vrbl 5 10.00 Fair CLR 64.4 55.4 73% 30.07 0.0
29 03:55 SW 7 10.00 Partly Cloudy FEW075 SCT095 64.4 55.4 73% 30.07 0.0
29 03:35 Vrbl 3 10.00 Mostly Cloudy FEW075 BKN095 64.4 55.4 73% 30.07 0.0
29 03:15 Vrbl 2 10.00 Fair CLR 59 53.6 82% 30.07 0.0
29 02:55 N 2 10.00 Fair CLR 59 53.6 82% 30.08 0.0
29 02:35 Vrbl 2 10.00 Fair CLR 60.8 53.6 77% 30.08 0.0
29 02:15 Vrbl 1 10.00 Fair CLR 59 53.6 82% 30.09 0.0
29 01:55 Vrbl 1 10.00 Fair CLR 59 53.6 68.9 57.7 82% 30.09 0.0
29 01:35 NE 2 10.00 Fair CLR 59 53.6 82% 30.09 0.0
29 01:15 NE 2 10.00 Fair CLR 59 53.6 82% 30.09 0.0
29 00:35 E 5 10.00 Fair CLR 60.8 55.4 83% 30.09 0.0
29 00:15 E 7 10.00 Fair CLR 60.8 53.6 77% 30.09 0.0
28 23:55 NE 6 10.00 Fair CLR 60.8 53.6 77% 30.09 0.0
28 23:35 E 7 10.00 Fair CLR 60.8 53.6 77% 30.1 0.0
28 23:15 E 7 10.00 Fair CLR 60.8 53.6 77% 30.1 0.0
28 22:55 E 5 10.00 Fair CLR 60.8 51.8 72% 30.1 0.0
28 22:35 NE 6 10.00 Fair CLR 60.8 51.8 72% 30.1 0.0
28 22:15 NE 5 10.00 Fair CLR 60.8 53.6 77% 30.1 0.0
28 21:55 NE 5 10.00 Fair CLR 60.8 53.6 77% 30.11 0.0
28 21:35 NE 3 10.00 Fair CLR 62.6 53.6 73% 30.1 0.0
28 21:15 NE 3 10.00 Fair CLR 64.4 53.6 68% 30.09 0.0
28 20:55 NE 2 10.00 Partly Cloudy SCT090 66.2 53.6 64% 30.09 0.0
28 20:35 E 2 10.00 Mostly Cloudy BKN090 66.2 53.6 64% 30.09 0.0
28 20:15 NE 2 10.00 A Few Clouds FEW090 68 53.6 60% 30.09 0.0
28 19:55 NE 2 10.00 Fair CLR 68 53.6 75.7 68.4 60% 30.09 0.0
28 19:35 N 2 10.00 Fair CLR 71.6 51.8 50% 30.09 0.0
28 19:15 Vrbl 1 10.00 Fair CLR 71.6 51.8 50% 30.1 0.0
28 18:55 Vrbl 2 10.00 Fair CLR 71.6 51.8 50% 30.1 0.0
28 18:35 W 3 10.00 Fair CLR 71.6 51.8 50% 30.1 0.0
28 18:15 SW 3 10.00 Fair CLR 73.4 51.8 47% 30.11 0.0
28 17:55 SW 5 10.00 Fair CLR 73.4 51.8 47% 30.11 0.0
28 17:35 W 7 10.00 Fair CLR 75.2 50 41% 78 30.11 0.0
28 17:15 W 5 10.00 Fair CLR 75.2 50 41% 78 30.11 0.0
28 16:55 W 8 10.00 Fair CLR 75.2 50 41% 78 30.11 0.0
28 16:35 W 8 10.00 Fair CLR 75.2 50 41% 78 30.12 0.0
28 16:15 SW 8 10.00 Fair CLR 73.4 48.2 41% 30.12 0.0
28 15:55 SW 8 10.00 Fair CLR 73.4 46.4 38% 30.12 0.0
28 15:35 Vrbl 6 10.00 Fair CLR 73.4 50 44% 30.13 0.0
28 15:15 W 8 10.00 Fair CLR 75.2 50 41% 78 30.14 0.0
28 14:55 W 7 10.00 Partly Cloudy SCT060 73.4 53.6 50% 30.14 0.0
28 14:35 W 7 10.00 Mostly Cloudy BKN060 BKN070 73.4 51.8 47% 30.15 0.0
28 14:15 Vrbl 6 10.00 Mostly Cloudy BKN060 BKN070 73.4 50 44% 30.15 0.0
28 13:55 W 8 10.00 Mostly Cloudy BKN060 BKN070 73.4 51.8 72.9 54.9 47% 30.15 0.0
28 13:35 Vrbl 6 10.00 Partly Cloudy SCT060 71.6 51.8 50% 30.16 0.0
28 13:15 W 8 10.00 Partly Cloudy FEW060 FEW070 SCT085 71.6 50 47% 30.16 0.0
28 12:55 W 7 10.00 Mostly Cloudy BKN050 BKN070 BKN085 69.8 51.8 53% 30.17 0.0
28 12:35 W 5 10.00 Partly Cloudy SCT050 SCT085 69.8 50 50% 30.17 0.0
28 12:15 Vrbl 5 10.00 Mostly Cloudy BKN050 BKN065 71.6 50 47% 30.18 0.0
28 11:55 W 7 10.00 Mostly Cloudy BKN050 68 51.8 56% 30.18 0.0
28 11:35 Vrbl 5 10.00 Partly Cloudy SCT050 68 51.8 56% 30.18 0.0
28 11:15 SW 6 10.00 Fair CLR 68 51.8 56% 30.18 0.0
28 10:55 Vrbl 5 10.00 Fair CLR 66.2 53.6 64% 30.18 0.0
28 10:35 W 5 10.00 Fair CLR 64.4 51.8 64% 30.17 0.0
28 10:15 SW 3 10.00 Fair CLR 64.4 53.6 68% 30.17 0.0
28 09:55 SW 5 10.00 Fair CLR 64.4 51.8 64% 30.17 0.0
28 09:35 SW 2 10.00 Fair CLR 62.6 51.8 68% 30.17 0.0
28 09:15 W 2 10.00 Fair CLR 60.8 51.8 72% 30.17 0.0
28 08:55 Calm 10.00 Fair CLR 60.8 51.8 72% 30.17 0.0
28 08:35 NE 2 10.00 Fair CLR 59 51.8 77% 30.16 0.0
28 08:15 NE 3 10.00 Fair CLR 57.2 51.8 82% 30.16 0.0
28 07:55 E 2 10.00 Fair CLR 55.4 50 59.4 52.2 82% 30.16 0.0
28 07:35 E 2 10.00 Fair CLR 53.6 48.2 82% 30.15 0.0
28 07:15 NE 2 10.00 Fair CLR 51.8 48.2 88% 30.15 0.0
28 06:55 NE 3 10.00 Fair CLR 53.6 50 88% 30.14 0.0
28 06:35 N 1 10.00 A Few Clouds FEW100 53.6 48.2 82% 30.14 0.0
28 06:15 NE 3 10.00 A Few Clouds FEW100 53.6 50 88% 30.13 0.0
28 05:55 NE 3 10.00 Partly Cloudy SCT095 53.6 50 88% 30.13 0.0
28 05:35 N 1 10.00 Overcast OVC085 55.4 50 82% 30.12 0.0
28 05:15 NE 2 10.00 Mostly Cloudy BKN095 55.4 50 82% 30.12 0.0
28 04:55 NE 1 10.00 Mostly Cloudy BKN095 57.2 50 77% 30.12 0.0
28 04:35 Vrbl 2 10.00 Overcast OVC085 57.2 50 77% 30.11 0.0
28 04:15 Calm 10.00 Overcast OVC085 57.2 50 77% 30.11 0.0
28 03:55 N 2 10.00 Overcast BKN085 OVC100 57.2 51.8 82% 30.1 0.0
28 03:35 NE 3 10.00 Overcast OVC085 57.2 50 77% 30.1 0.0
28 03:15 NE 3 10.00 Overcast OVC095 57.2 50 77% 30.1 0.0
28 02:55 NE 3 10.00 Overcast OVC095 57.2 50 77% 30.1 0.0
28 02:35 NE 3 10.00 Overcast OVC085 59 50 72% 30.1 0.0
28 02:15 NE 3 10.00 Overcast BKN080 OVC095 59 51.8 77% 30.1 0.0
28 01:55 Vrbl 3 10.00 Overcast FEW080 OVC095 59 51.8 66.9 58.1 77% 30.09 0.0
28 01:35 N 6 10.00 Overcast SCT080 OVC095 59 51.8 77% 30.09 0.0
28 01:15 N 6 10.00 Overcast BKN080 OVC095 59 51.8 77% 30.09 0.0
28 00:55 N 6 10.00 Overcast SCT080 OVC095 60.8 51.8 72% 30.08 0.0
28 00:35 N 7 10.00 Overcast FEW070 SCT080 OVC095 60.8 51.8 72% 30.08 0.0
28 00:15 N 6 10.00 Overcast BKN070 OVC095 60.8 51.8 72% 30.07 0.0
27 23:55 N 5 10.00 Overcast BKN070 OVC095 60.8 51.8 72% 30.07 0.0
27 23:35 N 7 10.00 Mostly Cloudy BKN075 BKN090 59 51.8 77% 30.07 0.0
27 23:15 N 5 10.00 Overcast OVC075 60.8 51.8 72% 30.07 0.0
27 22:55 N 5 10.00 Overcast OVC075 60.8 51.8 72% 30.06 0.0
27 22:35 N 5 10.00 Mostly Cloudy BKN075 59 51.8 77% 30.06 0.0
27 22:15 N 3 10.00 Partly Cloudy FEW075 SCT090 59 51.8 77% 30.05 0.0
27 21:55 N 5 10.00 Overcast OVC090 60.8 51.8 72% 30.05 0.0
27 21:35 N 3 10.00 Mostly Cloudy BKN090 60.8 51.8 72% 30.05 0.0
27 21:15 N 3 10.00 A Few Clouds FEW090 60.8 51.8 72% 30.04 0.0
27 20:55 N 3 10.00 Fair CLR 60.8 51.8 72% 30.03 0.0
27 20:35 N 2 10.00 Fair CLR 62.6 50 64% 30.03 0.0
27 20:15 N 3 10.00 Fair CLR 66.2 50 56% 30.03 0.0
Date Time (edt) Wind (mph) Vis. (mi.) Weather Sky Cond. Air Dwpt Max. Min. Relative Humidity Wind Chill (°F) Heat Index (°F) altimeter (in) sea level (mb) 1 hr 3 hr 6 hr
6 hour
Temperature (ºF) Pressure Precipitation (in)